Elk City, Oklahoma
Current Conditions -  °F | °C
As of 11:55 AM on Thursday 30 Oct 2014 (Local Time) from KELK Reporting Station
Clear Clear  
Wind Chill: 68°   Ceiling: Unl
Heat Index: 68°   Visibility: 10mi
Dew Point: 50°   Wind: 10mph
Humidity: 52%   Direction: 360°N
Pressure: 30.23"   Gusts: NA
Location:  35.41°N, 99.42°W
Report Text: KELK 301655Z AUTO 36009KT 10SM CLR 20/10 A3023 RMK AO2
Loading
Personal Weather Stations






























Interactive Weather Map
Tropical Storm Tracking
New forecast layout! Learn more

10-Day Weather Forecast

Advertisements
Track Severe Weather on mobile